INFORMACIÓN METAR y TAF
METAR FOR ENSG
ADDS - METARS form results

(0859 UTC 15 April 2021)
Data provider http://aviationweather.gov/metar/data/
 
METAR text: ENSG 150850Z 08006KT CAVOK 01/M06 Q1034 RMK WIND 3806FT 08006KT
Conditions at: ENSG (SOGNDAL/HAUKASEN, NO) observed 0850 UTC 15 April 2021
Temperature: 1.0°C (34°F)
Dewpoint: -6.0°C (21°F) [RH = 59%]
Pressure (altimeter): 30.53 inches Hg (1034.0 mb)
Winds: from the E (80 degrees) at 7 MPH (6 knots; 3.1 m/s)
Visibility: 6 or more miles (10+ km)
Ceiling: ceiling and visibility are OK
Clouds: unknown
Weather: no significant weather observed at this time

METAR text: ENSG 150820Z 08005KT CAVOK 00/M07 Q1034 RMK WIND 3806FT 09006KT
Conditions at: ENSG (SOGNDAL/HAUKASEN, NO) observed 0820 UTC 15 April 2021
Temperature: 0.0°C (32°F)
Dewpoint: -7.0°C (19°F) [RH = 59%]
Pressure (altimeter): 30.53 inches Hg (1034.0 mb)
Winds: from the E (80 degrees) at 6 MPH (5 knots; 2.6 m/s)
Visibility: 6 or more miles (10+ km)
Ceiling: ceiling and visibility are OK
Clouds: unknown
Weather: no significant weather observed at this time

 MAPA DE AEROPUERTO

 INFORMACIÓN DE PISTA
Pista 06 Longitud 3150 ft Ancho 0 ft
Elevación 1619 ft Umbral desplazado 0 ft Rumbo de pista 0
Pista 24 Longitud 3150 ft Ancho 0 ft
Elevación 1634 ft Umbral desplazado 0 ft Rumbo de pista 0

 FRECUANCIAS DEL AEROPUERTO
Tipo AFIS Nombre Sogndal Frecuencia 119.3 MHZ
Tipo INFO Nombre Sogndal In Frecuencia 121.5 MHZ

 RADIO AYUDAS DEL AEROPUERTO
Tipo VOR-DME Nombre Sogndal Frecuencia 114200 KHZ



Powered by Virtual Airlines Manager [v2.6.2]